UAE379 EDDN-EGKK
Flight info
| Callsign | UAE379 |
|---|---|
| Flight time | N/A |
| Altitude | 25000 |
| Route | SULUS1C/10 SULUS L604 MAPOX DCT GALSO Q63 ARREK Y4 TEBRA DCT MIMFO |
| Aircraft | A20N/M-SDE2E3FGHIRWXY/LB1 |
Departure
| Time | 2026-05-01 10:54 |
|---|---|
| Airport | Nuremberg Airport (EDDN) |
Arrival
| Time | N/A |
|---|---|
| Airport | London Gatwick Airport (EGKK) |
| Time | Latitude | Longitude | Altitude | Speed | Heading |
|---|---|---|---|---|---|
| 2026-05-01 10:30 | 49.49497 | 11.08108 | 1032 ft | 0 kts | 189° |
| 2026-05-01 10:42 | 49.49494 | 11.08107 | 1032 ft | 0 kts | 189° |
| 2026-05-01 10:43 | 49.49496 | 11.08108 | 1032 ft | 0 kts | 188° |
| 2026-05-01 10:43 | 49.49512 | 11.08106 | 1031 ft | 2 kts | 152° |
| 2026-05-01 10:43 | 49.49523 | 11.08089 | 1031 ft | 2 kts | 112° |
| 2026-05-01 10:44 | 49.49528 | 11.08067 | 1033 ft | 1 kts | 100° |
| 2026-05-01 10:44 | 49.49528 | 11.08060 | 1033 ft | 0 kts | 99° |
| 2026-05-01 10:47 | 49.49528 | 11.08062 | 1033 ft | 0 kts | 98° |
| 2026-05-01 10:47 | 49.49531 | 11.08071 | 1031 ft | 2 kts | 73° |
| 2026-05-01 10:47 | 49.49538 | 11.08080 | 1032 ft | 1 kts | 33° |
| 2026-05-01 10:47 | 49.49541 | 11.08079 | 1032 ft | 0 kts | 11° |
| 2026-05-01 10:48 | 49.49550 | 11.08077 | 1032 ft | 1 kts | 349° |
| 2026-05-01 10:48 | 49.49555 | 11.08067 | 1032 ft | 1 kts | 316° |
| 2026-05-01 10:48 | 49.49558 | 11.08048 | 1030 ft | 4 kts | 286° |
| 2026-05-01 10:48 | 49.49565 | 11.07979 | 1034 ft | 10 kts | 278° |
| 2026-05-01 10:49 | 49.49577 | 11.07837 | 1032 ft | 17 kts | 278° |
| 2026-05-01 10:49 | 49.49603 | 11.07749 | 1031 ft | 2 kts | 345° |
| 2026-05-01 10:49 | 49.49629 | 11.07753 | 1034 ft | 7 kts | 4° |
| 2026-05-01 10:50 | 49.49689 | 11.07690 | 1036 ft | 5 kts | 287° |
| 2026-05-01 10:50 | 49.49697 | 11.07608 | 1036 ft | 12 kts | 278° |
| 2026-05-01 10:50 | 49.49712 | 11.07435 | 1032 ft | 21 kts | 278° |
| 2026-05-01 10:50 | 49.49736 | 11.07184 | 1026 ft | 27 kts | 281° |
| 2026-05-01 10:51 | 49.49770 | 11.06863 | 1023 ft | 33 kts | 278° |
| 2026-05-01 10:51 | 49.49803 | 11.06512 | 1022 ft | 33 kts | 278° |
| 2026-05-01 10:51 | 49.49827 | 11.06278 | 1023 ft | 16 kts | 279° |
| 2026-05-01 10:51 | 49.49845 | 11.06098 | 1019 ft | 18 kts | 279° |
| 2026-05-01 10:52 | 49.49895 | 11.05977 | 1022 ft | 11 kts | 332° |
| 2026-05-01 10:52 | 49.49982 | 11.05934 | 1023 ft | 15 kts | 355° |
| 2026-05-01 10:52 | 49.50036 | 11.05978 | 1022 ft | 5 kts | 61° |
| 2026-05-01 10:52 | 49.50040 | 11.06013 | 1023 ft | 3 kts | 84° |
| 2026-05-01 10:53 | 49.50040 | 11.06059 | 1023 ft | 4 kts | 96° |
| 2026-05-01 10:53 | 49.50039 | 11.06078 | 1018 ft | 0 kts | 97° |
| 2026-05-01 10:53 | 49.50037 | 11.06097 | 1019 ft | 16 kts | 97° |
| 2026-05-01 10:53 | 49.49978 | 11.06722 | 1023 ft | 101 kts | 98° |
| 2026-05-01 10:54 | 49.49834 | 11.08184 | 1029 ft | 175 kts | 99° |
| 2026-05-01 10:54 | 49.49613 | 11.10318 | 1345 ft | 226 kts | 99° |
| 2026-05-01 10:54 | 49.49360 | 11.12819 | 2071 ft | 245 kts | 98° |
| 2026-05-01 10:54 | 49.49117 | 11.15596 | 2207 ft | 279 kts | 94° |
| 2026-05-01 10:55 | 49.49210 | 11.18676 | 2688 ft | 294 kts | 78° |
| 2026-05-01 10:55 | 49.49880 | 11.21601 | 3812 ft | 284 kts | 61° |
| 2026-05-01 10:55 | 49.51004 | 11.24012 | 5014 ft | 272 kts | 45° |
| 2026-05-01 10:55 | 49.52413 | 11.25777 | 6027 ft | 271 kts | 32° |
| 2026-05-01 10:56 | 49.54089 | 11.27353 | 6690 ft | 286 kts | 29° |
| 2026-05-01 10:56 | 49.55856 | 11.28912 | 6964 ft | 313 kts | 29° |
| 2026-05-01 10:56 | 49.57887 | 11.30712 | 6997 ft | 347 kts | 30° |
| 2026-05-01 10:56 | 49.60078 | 11.32505 | 6987 ft | 376 kts | 18° |
| 2026-05-01 10:57 | 49.62732 | 11.33075 | 7197 ft | 385 kts | 355° |
| 2026-05-01 10:57 | 49.65315 | 11.32486 | 8793 ft | 367 kts | 344° |
| 2026-05-01 10:57 | 49.67528 | 11.30909 | 10460 ft | 342 kts | 319° |
| 2026-05-01 10:57 | 49.69131 | 11.28382 | 12035 ft | 319 kts | 311° |
| 2026-05-01 10:58 | 49.70515 | 11.25855 | 13432 ft | 303 kts | 308° |
| 2026-05-01 10:58 | 49.71792 | 11.23298 | 14405 ft | 301 kts | 306° |
| 2026-05-01 10:58 | 49.73112 | 11.20770 | 15120 ft | 305 kts | 312° |
| 2026-05-01 10:58 | 49.74618 | 11.18410 | 15812 ft | 309 kts | 319° |
| 2026-05-01 10:59 | 49.76413 | 11.16562 | 16536 ft | 313 kts | 332° |
| 2026-05-01 10:59 | 49.78327 | 11.14897 | 17190 ft | 317 kts | 328° |
| 2026-05-01 10:59 | 49.78446 | 11.14785 | 17223 ft | 317 kts | 328° |
| 2026-05-01 10:59 | 49.80388 | 11.13189 | 17888 ft | 321 kts | 335° |
| 2026-05-01 11:00 | 49.82473 | 11.11886 | 18541 ft | 324 kts | 336° |
| 2026-05-01 11:00 | 49.84488 | 11.10277 | 19154 ft | 328 kts | 327° |
| 2026-05-01 11:00 | 49.86351 | 11.08274 | 19722 ft | 332 kts | 320° |
| 2026-05-01 11:00 | 49.88059 | 11.05843 | 20343 ft | 335 kts | 315° |
| 2026-05-01 11:01 | 49.89712 | 11.03281 | 20950 ft | 338 kts | 314° |
| 2026-05-01 11:01 | 49.91370 | 11.00688 | 21527 ft | 340 kts | 314° |
| 2026-05-01 11:01 | 49.93042 | 10.98070 | 22095 ft | 343 kts | 314° |
| 2026-05-01 11:01 | 49.94659 | 10.95528 | 22628 ft | 346 kts | 313° |
| 2026-05-01 11:02 | 49.95985 | 10.93390 | 23057 ft | 349 kts | 313° |
| 2026-05-01 11:02 | 49.97717 | 10.90576 | 23595 ft | 352 kts | 313° |
| 2026-05-01 11:02 | 49.99409 | 10.87824 | 24116 ft | 354 kts | 313° |
| 2026-05-01 11:02 | 50.01123 | 10.85034 | 24617 ft | 357 kts | 313° |
| 2026-05-01 11:03 | 50.02856 | 10.82210 | 24940 ft | 366 kts | 313° |
| 2026-05-01 11:03 | 50.04696 | 10.79357 | 24997 ft | 382 kts | 319° |
| 2026-05-01 11:03 | 50.06332 | 10.77105 | 24999 ft | 395 kts | 316° |
| 2026-05-01 11:04 | 50.08216 | 10.74218 | 25016 ft | 409 kts | 314° |
| 2026-05-01 11:04 | 50.10222 | 10.70957 | 25016 ft | 424 kts | 313° |
| 2026-05-01 11:04 | 50.12292 | 10.67567 | 25005 ft | 438 kts | 313° |
| 2026-05-01 11:04 | 50.14398 | 10.64111 | 25001 ft | 452 kts | 313° |
| 2026-05-01 11:05 | 50.16594 | 10.60503 | 24998 ft | 465 kts | 313° |
| 2026-05-01 11:05 | 50.18853 | 10.56788 | 24997 ft | 478 kts | 313° |
| 2026-05-01 11:05 | 50.21164 | 10.52983 | 24995 ft | 490 kts | 313° |
| 2026-05-01 11:05 | 50.23544 | 10.49058 | 25172 ft | 492 kts | 313° |
| 2026-05-01 11:06 | 50.25828 | 10.45293 | 26835 ft | 465 kts | 313° |
| 2026-05-01 11:06 | 50.28013 | 10.41691 | 28052 ft | 450 kts | 313° |
| 2026-05-01 11:06 | 50.30155 | 10.38159 | 28739 ft | 446 kts | 313° |
| 2026-05-01 11:07 | 50.34588 | 10.30834 | 28491 ft | 474 kts | 313° |
| 2026-05-01 11:07 | 50.36835 | 10.26998 | 28653 ft | 481 kts | 310° |
| 2026-05-01 11:07 | 50.38493 | 10.23933 | 28767 ft | 486 kts | 309° |
| 2026-05-01 11:07 | 50.39636 | 10.21767 | 28906 ft | 488 kts | 309° |
| 2026-05-01 11:08 | 50.41815 | 10.17607 | 28770 ft | 494 kts | 309° |
| 2026-05-01 11:08 | 50.43945 | 10.13525 | 30136 ft | 474 kts | 309° |
| 2026-05-01 11:08 | 50.48149 | 10.05463 | 27062 ft | 502 kts | 309° |
| 2026-05-01 11:09 | 50.50398 | 10.01154 | 24542 ft | 503 kts | 309° |
| 2026-05-01 11:09 | 50.52390 | 9.97392 | 27922 ft | 434 kts | 309° |
| 2026-05-01 11:09 | 50.54308 | 9.93762 | 28240 ft | 443 kts | 309° |
| 2026-05-01 11:10 | 50.58357 | 9.86003 | 27080 ft | 491 kts | 309° |
| 2026-05-01 11:10 | 50.60499 | 9.81884 | 28039 ft | 477 kts | 309° |
| 2026-05-01 11:10 | 50.62565 | 9.77911 | 29262 ft | 459 kts | 309° |
| 2026-05-01 11:10 | 50.64548 | 9.74099 | 30406 ft | 442 kts | 309° |
| 2026-05-01 11:11 | 50.66468 | 9.70405 | 31339 ft | 430 kts | 309° |
| 2026-05-01 11:11 | 50.68356 | 9.66769 | 31892 ft | 427 kts | 309° |
| 2026-05-01 11:11 | 50.70246 | 9.63128 | 32083 ft | 432 kts | 309° |
| 2026-05-01 11:11 | 50.72181 | 9.59397 | 31916 ft | 446 kts | 309° |
| 2026-05-01 11:12 | 50.74186 | 9.55526 | 31618 ft | 464 kts | 309° |
| 2026-05-01 11:12 | 50.76132 | 9.51764 | 31122 ft | 484 kts | 309° |
| 2026-05-01 11:12 | 50.78344 | 9.47481 | 30393 ft | 500 kts | 308° |
| 2026-05-01 11:12 | 50.80534 | 9.43286 | 30247 ft | 482 kts | 307° |
| 2026-05-01 11:13 | 50.82671 | 9.39274 | 30969 ft | 473 kts | 308° |
| 2026-05-01 11:13 | 50.84783 | 9.35383 | 31390 ft | 473 kts | 308° |
| 2026-05-01 11:13 | 50.86934 | 9.31430 | 31658 ft | 475 kts | 308° |
| 2026-05-01 11:13 | 50.89093 | 9.27459 | 31470 ft | 473 kts | 308° |
| 2026-05-01 11:14 | 50.91231 | 9.23529 | 31020 ft | 465 kts | 308° |
| 2026-05-01 11:14 | 50.93327 | 9.19681 | 30551 ft | 458 kts | 308° |
| 2026-05-01 11:14 | 50.95398 | 9.15878 | 30044 ft | 453 kts | 308° |
| 2026-05-01 11:14 | 50.97483 | 9.12043 | 29219 ft | 460 kts | 308° |
| 2026-05-01 11:15 | 50.99577 | 9.08185 | 28036 ft | 467 kts | 308° |
| 2026-05-01 11:15 | 51.01682 | 9.04299 | 27438 ft | 463 kts | 308° |
| 2026-05-01 11:15 | 51.03748 | 9.00493 | 27340 ft | 446 kts | 308° |
| 2026-05-01 11:15 | 51.05696 | 8.96722 | 27063 ft | 433 kts | 302° |
| 2026-05-01 11:16 | 51.07064 | 8.92557 | 26762 ft | 420 kts | 289° |
| 2026-05-01 11:16 | 51.07916 | 8.88178 | 26461 ft | 409 kts | 284° |
| 2026-05-01 11:16 | 51.08640 | 8.83851 | 26159 ft | 401 kts | 283° |
| 2026-05-01 11:16 | 51.09340 | 8.79607 | 25861 ft | 394 kts | 283° |
| 2026-05-01 11:17 | 51.10050 | 8.75276 | 25572 ft | 413 kts | 283° |
| 2026-05-01 11:17 | 51.10765 | 8.70904 | 25256 ft | 406 kts | 283° |
| 2026-05-01 11:17 | 51.11484 | 8.66505 | 24967 ft | 424 kts | 283° |
| 2026-05-01 11:17 | 51.12225 | 8.61958 | 24792 ft | 420 kts | 283° |
| 2026-05-01 11:18 | 51.12947 | 8.57522 | 24935 ft | 408 kts | 283° |
| 2026-05-01 11:18 | 51.13651 | 8.53196 | 24911 ft | 401 kts | 283° |
| 2026-05-01 11:18 | 51.14346 | 8.48930 | 24826 ft | 396 kts | 283° |
| 2026-05-01 11:18 | 51.15036 | 8.44703 | 24745 ft | 391 kts | 283° |
| 2026-05-01 11:19 | 51.15678 | 8.40767 | 24690 ft | 387 kts | 283° |
| 2026-05-01 11:19 | 51.16351 | 8.36637 | 24627 ft | 382 kts | 283° |
| 2026-05-01 11:19 | 51.17018 | 8.32542 | 24465 ft | 381 kts | 283° |
| 2026-05-01 11:19 | 51.17683 | 8.28461 | 24261 ft | 381 kts | 283° |
| 2026-05-01 11:20 | 51.18348 | 8.24373 | 24060 ft | 380 kts | 283° |
| 2026-05-01 11:20 | 51.18843 | 8.21326 | 23909 ft | 380 kts | 283° |
| 2026-05-01 11:20 | 51.19524 | 8.17129 | 23723 ft | 379 kts | 283° |
| 2026-05-01 11:20 | 51.20176 | 8.13112 | 23502 ft | 369 kts | 283° |
| 2026-05-01 11:21 | 51.20814 | 8.09177 | 23307 ft | 370 kts | 283° |
| 2026-05-01 11:21 | 51.21459 | 8.05206 | 23100 ft | 365 kts | 283° |
| 2026-05-01 11:21 | 51.22089 | 8.01343 | 22892 ft | 355 kts | 283° |
| 2026-05-01 11:21 | 51.22702 | 7.97572 | 22711 ft | 347 kts | 283° |
| 2026-05-01 11:22 | 51.23297 | 7.93885 | 22497 ft | 339 kts | 283° |
| 2026-05-01 11:22 | 51.23881 | 7.90265 | 22307 ft | 333 kts | 283° |
| 2026-05-01 11:22 | 51.24452 | 7.86727 | 22099 ft | 327 kts | 283° |
| 2026-05-01 11:22 | 51.25017 | 7.83241 | 21904 ft | 322 kts | 283° |
| 2026-05-01 11:23 | 51.25562 | 7.79820 | 21698 ft | 318 kts | 283° |
| 2026-05-01 11:23 | 51.26120 | 7.76422 | 21508 ft | 317 kts | 283° |
| 2026-05-01 11:23 | 51.26697 | 7.73020 | 21306 ft | 318 kts | 283° |
| 2026-05-01 11:23 | 51.27274 | 7.69610 | 21093 ft | 317 kts | 283° |
| 2026-05-01 11:24 | 51.27825 | 7.66259 | 20880 ft | 315 kts | 283° |
| 2026-05-01 11:24 | 51.28375 | 7.62876 | 20683 ft | 314 kts | 283° |
| 2026-05-01 11:24 | 51.29470 | 7.56145 | 20280 ft | 312 kts | 283° |
| 2026-05-01 11:25 | 51.30015 | 7.52785 | 20085 ft | 311 kts | 283° |
| 2026-05-01 11:25 | 51.31094 | 7.46125 | 19681 ft | 308 kts | 283° |
| 2026-05-01 11:25 | 51.31631 | 7.42808 | 19483 ft | 307 kts | 283° |
| 2026-05-01 11:26 | 51.32159 | 7.39558 | 19284 ft | 306 kts | 283° |
| 2026-05-01 11:26 | 51.33224 | 7.32991 | 18885 ft | 303 kts | 283° |
| 2026-05-01 11:26 | 51.33753 | 7.29728 | 18696 ft | 302 kts | 283° |
| 2026-05-01 11:27 | 51.34271 | 7.26485 | 18515 ft | 300 kts | 283° |
| 2026-05-01 11:27 | 51.34779 | 7.23263 | 18315 ft | 299 kts | 283° |
| 2026-05-01 11:27 | 51.35276 | 7.20033 | 18099 ft | 299 kts | 281° |
| 2026-05-01 11:27 | 51.35670 | 7.16768 | 17884 ft | 299 kts | 279° |
| 2026-05-01 11:28 | 51.36035 | 7.13505 | 17681 ft | 297 kts | 279° |
| 2026-05-01 11:28 | 51.36397 | 7.10259 | 17473 ft | 296 kts | 279° |
| 2026-05-01 11:28 | 51.36636 | 7.08112 | 17212 ft | 296 kts | 279° |
| 2026-05-01 11:29 | 51.37351 | 7.01688 | 16522 ft | 291 kts | 279° |
| 2026-05-01 11:29 | 51.37704 | 6.98509 | 16161 ft | 289 kts | 279° |
| 2026-05-01 11:29 | 51.38401 | 6.92226 | 15439 ft | 285 kts | 279° |
| 2026-05-01 11:30 | 51.38745 | 6.89128 | 15085 ft | 283 kts | 279° |
| 2026-05-01 11:30 | 51.39092 | 6.86030 | 14719 ft | 281 kts | 279° |
| 2026-05-01 11:30 | 51.39433 | 6.82969 | 14339 ft | 279 kts | 279° |
| 2026-05-01 11:30 | 51.39744 | 6.80170 | 14011 ft | 278 kts | 279° |
| 2026-05-01 11:31 | 51.40081 | 6.77130 | 13631 ft | 276 kts | 279° |
| 2026-05-01 11:31 | 51.40414 | 6.74118 | 13267 ft | 274 kts | 279° |
| 2026-05-01 11:31 | 51.40742 | 6.71153 | 12903 ft | 273 kts | 279° |
| 2026-05-01 11:31 | 51.41071 | 6.68174 | 12541 ft | 271 kts | 279° |
| 2026-05-01 11:32 | 51.41398 | 6.65212 | 12178 ft | 269 kts | 279° |
| 2026-05-01 11:32 | 51.41723 | 6.62268 | 11822 ft | 267 kts | 279° |
| 2026-05-01 11:32 | 51.42043 | 6.59372 | 11462 ft | 266 kts | 279° |
| 2026-05-01 11:32 | 51.42348 | 6.56599 | 11121 ft | 264 kts | 279° |
| 2026-05-01 11:33 | 51.42666 | 6.53703 | 10750 ft | 263 kts | 279° |
| 2026-05-01 11:33 | 51.42984 | 6.50829 | 10384 ft | 262 kts | 279° |
| 2026-05-01 11:33 | 51.43296 | 6.47968 | 10082 ft | 259 kts | 279° |
| 2026-05-01 11:33 | 51.43609 | 6.45115 | 9998 ft | 259 kts | 279° |
| 2026-05-01 11:34 | 51.43919 | 6.42303 | 9999 ft | 259 kts | 279° |
| 2026-05-01 11:34 | 51.44231 | 6.39454 | 10000 ft | 259 kts | 279° |
| 2026-05-01 11:34 | 51.44544 | 6.36610 | 10000 ft | 259 kts | 279° |
| 2026-05-01 11:34 | 51.44856 | 6.33765 | 10000 ft | 259 kts | 279° |
| 2026-05-01 11:35 | 51.45168 | 6.30912 | 10000 ft | 260 kts | 279° |
| 2026-05-01 11:35 | 51.45481 | 6.28057 | 10000 ft | 260 kts | 279° |
| 2026-05-01 11:35 | 51.45792 | 6.25207 | 10000 ft | 259 kts | 279° |
| 2026-05-01 11:35 | 51.46102 | 6.22360 | 9999 ft | 260 kts | 279° |
| 2026-05-01 11:36 | 51.46413 | 6.19502 | 9999 ft | 260 kts | 279° |
| 2026-05-01 11:36 | 51.46724 | 6.16650 | 9999 ft | 260 kts | 279° |